createdAt,value
2022-08-17T00:00:34.281Z,91.11
2022-08-17T00:03:09.056Z,91.29
2022-08-17T00:05:44.547Z,91.32
2022-08-17T00:08:15.580Z,91.47
2022-08-17T00:10:45.360Z,91.61
2022-08-17T00:13:15.974Z,91.94
2022-08-17T00:15:44.963Z,92.30
2022-08-17T00:19:01.411Z,92.63
2022-08-17T00:21:02.987Z,92.72
2022-08-17T00:23:33.030Z,92.87
2022-08-17T00:26:01.106Z,93.36
2022-08-17T00:28:29.374Z,93.22
2022-08-17T00:31:01.243Z,93.61
2022-08-17T00:33:32.986Z,93.98
2022-08-17T00:36:02.014Z,93.97
2022-08-17T00:38:30.896Z,94.42
2022-08-17T00:41:03.612Z,94.73
2022-08-17T00:43:36.029Z,95.03
2022-08-17T00:46:08.222Z,95.09
2022-08-17T00:48:36.841Z,95.50
2022-08-17T00:51:10.848Z,95.73
2022-08-17T00:53:41.993Z,95.99
2022-08-17T00:56:16.103Z,96.20
2022-08-17T00:58:44.314Z,96.15
2022-08-17T01:01:21.820Z,96.61
2022-08-17T01:03:52.284Z,96.88
2022-08-17T01:06:22.149Z,97.14
2022-08-17T01:08:57.753Z,97.30
2022-08-17T01:11:28.358Z,97.76
2022-08-17T01:13:56.361Z,97.68
2022-08-17T01:16:27.001Z,98.25
2022-08-17T01:18:58.333Z,98.21
2022-08-17T01:21:33.800Z,98.45
2022-08-17T01:24:04.681Z,98.38
2022-08-17T01:26:34.314Z,98.47
2022-08-17T01:29:04.146Z,98.68
2022-08-17T01:31:36.367Z,98.56
2022-08-17T01:34:08.327Z,98.70
2022-08-17T01:36:37.144Z,98.82
2022-08-17T01:39:10.873Z,99.04
2022-08-17T01:41:41.545Z,98.83
2022-08-17T01:44:10.793Z,99.39
2022-08-17T01:46:39.042Z,99.22
2022-08-17T01:49:09.108Z,99.27
2022-08-17T01:51:37.337Z,99.49
2022-08-17T01:54:11.626Z,99.44
2022-08-17T01:56:42.882Z,99.84
2022-08-17T01:59:10.819Z,99.85
2022-08-17T02:01:39.117Z,100.00
2022-08-17T02:04:08.459Z,100.00
2022-08-17T02:06:52.661Z,100.00
2022-08-17T02:09:25.333Z,100.00
2022-08-17T02:11:54.819Z,100.00
2022-08-17T02:14:25.292Z,100.00
2022-08-17T02:16:53.384Z,100.00
2022-08-17T02:19:22.081Z,100.00
2022-08-17T02:21:52.957Z,100.00
2022-08-17T02:24:58.499Z,100.00
2022-08-17T02:27:16.651Z,100.00
2022-08-17T02:29:44.641Z,100.00
2022-08-17T02:32:22.275Z,100.00
2022-08-17T02:34:55.728Z,100.00
2022-08-17T02:37:23.821Z,100.00
2022-08-17T02:39:53.351Z,100.00
2022-08-17T02:42:27.878Z,100.00
2022-08-17T02:44:55.922Z,100.00
2022-08-17T02:47:24.635Z,100.00
2022-08-17T02:49:54.287Z,100.00
2022-08-17T02:52:42.473Z,100.00
2022-08-17T02:55:16.310Z,100.00
2022-08-17T02:57:44.270Z,100.00
2022-08-17T03:00:15.590Z,100.00
2022-08-17T03:02:45.414Z,100.00
2022-08-17T03:05:16.294Z,100.00
2022-08-17T03:07:44.352Z,100.00
2022-08-17T03:10:14.422Z,100.00
2022-08-17T03:12:43.788Z,100.00
2022-08-17T03:15:14.050Z,100.00
2022-08-17T03:17:42.401Z,100.00
2022-08-17T03:20:11.407Z,100.00
2022-08-17T03:22:41.346Z,100.00
2022-08-17T03:25:20.170Z,100.00
2022-08-17T03:27:51.516Z,100.00
2022-08-17T03:30:22.511Z,100.00
2022-08-17T03:32:56.216Z,100.00
2022-08-17T03:35:26.630Z,100.00
2022-08-17T03:38:00.062Z,100.00
2022-08-17T03:40:43.780Z,100.00
2022-08-17T03:43:20.071Z,100.00
2022-08-17T03:46:23.997Z,100.00
2022-08-17T03:49:12.046Z,100.00
2022-08-17T03:51:57.647Z,100.00
2022-08-17T03:54:42.964Z,100.00
2022-08-17T03:57:13.523Z,100.00
2022-08-17T03:59:42.003Z,100.00
2022-08-17T04:02:13.526Z,100.00
2022-08-17T04:04:41.786Z,100.00
2022-08-17T04:07:09.705Z,100.00
2022-08-17T04:09:38.023Z,100.00
2022-08-17T04:12:07.231Z,100.00
2022-08-17T04:14:51.637Z,100.00
2022-08-17T04:17:22.580Z,100.00
2022-08-17T04:19:50.498Z,100.00
2022-08-17T04:22:32.049Z,100.00
2022-08-17T04:25:09.013Z,100.00
2022-08-17T04:27:37.514Z,100.00
2022-08-17T04:30:08.425Z,100.00
2022-08-17T04:33:09.852Z,100.00
2022-08-17T04:35:39.978Z,100.00
2022-08-17T04:38:12.276Z,100.00
2022-08-17T04:40:58.270Z,100.00
2022-08-17T04:43:28.304Z,100.00
2022-08-17T04:46:00.265Z,100.00
2022-08-17T04:48:36.233Z,100.00
2022-08-17T04:51:08.015Z,100.00
2022-08-17T04:53:36.517Z,100.00
2022-08-17T04:56:05.315Z,100.00
2022-08-17T04:58:33.758Z,100.00
2022-08-17T05:01:03.432Z,100.00
2022-08-17T05:03:32.612Z,100.00
2022-08-17T05:06:00.680Z,100.00
2022-08-17T05:08:28.693Z,100.00
2022-08-17T05:10:56.873Z,100.00
2022-08-17T05:13:26.357Z,100.00
2022-08-17T05:15:57.163Z,100.00
2022-08-17T05:18:26.677Z,100.00
2022-08-17T05:20:55.048Z,100.00
2022-08-17T05:23:25.135Z,100.00
2022-08-17T05:25:56.390Z,100.00
2022-08-17T05:28:28.000Z,100.00
2022-08-17T05:30:59.374Z,100.00
2022-08-17T05:33:31.442Z,100.00
2022-08-17T05:36:00.887Z,100.00
2022-08-17T05:38:30.735Z,100.00
2022-08-17T05:40:59.797Z,100.00
2022-08-17T05:43:30.116Z,100.00
2022-08-17T05:46:05.384Z,100.00
2022-08-17T05:48:40.170Z,100.00
2022-08-17T05:51:22.089Z,100.00
2022-08-17T05:53:59.661Z,100.00
2022-08-17T05:56:50.233Z,100.00
2022-08-17T05:59:27.812Z,100.00
2022-08-17T06:02:04.189Z,100.00
2022-08-17T06:04:45.378Z,100.00
2022-08-17T06:07:22.806Z,100.00
2022-08-17T06:09:58.694Z,100.00
2022-08-17T06:12:38.690Z,100.00
2022-08-17T06:15:24.654Z,100.00
2022-08-17T06:17:55.847Z,100.00
2022-08-17T06:20:28.314Z,100.00
2022-08-17T06:23:03.885Z,100.00
2022-08-17T06:25:36.015Z,100.00
2022-08-17T06:28:07.288Z,100.00
2022-08-17T06:30:59.944Z,100.00
2022-08-17T06:33:34.418Z,100.00
2022-08-17T06:36:10.246Z,99.61
2022-08-17T06:38:52.110Z,98.82
2022-08-17T06:41:27.616Z,98.67
2022-08-17T06:44:07.665Z,98.14
2022-08-17T06:46:39.329Z,97.12
2022-08-17T06:49:17.881Z,95.94
2022-08-17T06:51:52.586Z,94.94
2022-08-17T06:54:30.070Z,94.04
2022-08-17T06:57:01.801Z,92.79
2022-08-17T06:59:55.018Z,92.50
2022-08-17T07:02:52.431Z,92.16
2022-08-17T07:05:24.874Z,92.26
2022-08-17T07:08:05.204Z,91.58
2022-08-17T07:10:39.647Z,92.36
2022-08-17T07:13:30.703Z,91.39
2022-08-17T07:16:14.826Z,90.70
2022-08-17T07:18:43.780Z,90.36
2022-08-17T07:21:26.534Z,88.48
2022-08-17T07:24:08.065Z,85.85
2022-08-17T07:26:36.004Z,85.21
2022-08-17T07:29:04.029Z,81.39
2022-08-17T07:31:33.660Z,80.75
2022-08-17T07:34:08.525Z,77.21
2022-08-17T07:36:36.449Z,73.73
2022-08-17T07:39:06.168Z,74.66
2022-08-17T07:41:57.895Z,74.37
2022-08-17T07:44:27.677Z,73.83
2022-08-17T07:47:14.621Z,74.59
2022-08-17T07:49:46.107Z,72.89
2022-08-17T07:52:48.063Z,72.09
2022-08-17T07:55:29.619Z,72.47
2022-08-17T07:57:59.089Z,73.46
2022-08-17T08:00:32.648Z,72.16
2022-08-17T08:03:16.101Z,70.31
2022-08-17T08:05:56.398Z,70.00
2022-08-17T08:08:29.299Z,69.25
2022-08-17T08:11:07.145Z,69.97
2022-08-17T08:13:42.536Z,71.28
2022-08-17T08:16:22.611Z,69.81
2022-08-17T08:18:57.570Z,66.91
2022-08-17T08:21:34.511Z,66.18
2022-08-17T08:24:19.913Z,65.38
2022-08-17T08:26:58.050Z,65.22
2022-08-17T08:29:35.745Z,64.95
2022-08-17T08:32:11.373Z,65.77
2022-08-17T08:35:01.525Z,62.49
2022-08-17T08:37:43.007Z,62.20
2022-08-17T08:40:29.952Z,61.60
2022-08-17T08:43:09.357Z,62.96
2022-08-17T08:45:47.133Z,62.73
2022-08-17T08:48:58.303Z,62.19
2022-08-17T08:51:39.866Z,62.46
2022-08-17T08:54:20.240Z,59.87
2022-08-17T08:57:23.173Z,58.46
2022-08-17T09:00:05.443Z,59.13
2022-08-17T09:02:57.715Z,59.48
2022-08-17T09:05:39.328Z,59.46
2022-08-17T09:08:31.989Z,59.23
2022-08-17T09:11:06.055Z,57.71
2022-08-17T09:13:44.398Z,58.67
2022-08-17T09:16:20.228Z,59.42
2022-08-17T09:19:03.265Z,57.54
2022-08-17T09:21:48.468Z,55.07
2022-08-17T09:24:24.253Z,53.53
2022-08-17T09:27:00.005Z,54.46
2022-08-17T09:29:32.550Z,55.72
2022-08-17T09:32:03.902Z,54.58
2022-08-17T09:34:36.502Z,54.59
2022-08-17T09:37:18.969Z,53.61
2022-08-17T09:39:56.591Z,54.88
2022-08-17T09:42:31.115Z,57.26
2022-08-17T09:45:08.687Z,57.56
2022-08-17T09:47:45.519Z,57.16
2022-08-17T09:51:05.262Z,57.28
2022-08-17T09:53:10.287Z,58.13
2022-08-17T09:56:04.281Z,57.48
2022-08-17T09:58:47.651Z,55.74
2022-08-17T10:01:31.591Z,53.77
2022-08-17T10:04:29.290Z,51.36
2022-08-17T10:07:06.774Z,49.50
2022-08-17T10:09:45.672Z,48.10
2022-08-17T10:12:29.988Z,46.87
2022-08-17T10:15:17.440Z,47.90
2022-08-17T10:17:59.916Z,47.14
2022-08-17T10:20:34.211Z,46.98
2022-08-17T10:23:25.030Z,47.39
2022-08-17T10:26:16.948Z,46.72
2022-08-17T10:28:51.187Z,45.11
2022-08-17T10:31:36.229Z,41.94
2022-08-17T10:34:27.235Z,41.52
2022-08-17T10:37:07.566Z,42.36
2022-08-17T10:39:51.913Z,41.56
2022-08-17T10:42:30.287Z,41.36
2022-08-17T10:45:06.544Z,41.61
2022-08-17T10:48:04.291Z,42.31
2022-08-17T10:51:08.940Z,43.90
2022-08-17T10:53:58.862Z,43.22
2022-08-17T10:56:45.214Z,43.37
2022-08-17T10:59:55.418Z,43.59
2022-08-17T11:02:31.612Z,42.21
2022-08-17T11:05:15.806Z,41.96
2022-08-17T11:08:05.619Z,43.91
2022-08-17T11:10:52.342Z,42.61
2022-08-17T11:13:33.774Z,41.02
2022-08-17T11:16:18.593Z,41.99
2022-08-17T11:19:10.294Z,43.29
2022-08-17T11:22:00.949Z,42.42
2022-08-17T11:24:37.052Z,41.46
2022-08-17T11:27:12.110Z,40.56
2022-08-17T11:29:58.087Z,40.40
2022-08-17T11:32:37.691Z,40.39
2022-08-17T11:35:22.593Z,40.47
2022-08-17T11:38:02.878Z,41.43
2022-08-17T11:41:04.406Z,40.80
2022-08-17T11:44:16.558Z,41.11
2022-08-17T11:47:16.775Z,39.68
2022-08-17T11:50:21.632Z,40.90
2022-08-17T11:52:52.691Z,41.29
2022-08-17T11:55:54.026Z,41.71
2022-08-17T11:58:40.087Z,41.36
2022-08-17T12:01:09.672Z,41.92
2022-08-17T12:03:55.642Z,41.76
2022-08-17T12:06:54.833Z,42.42
2022-08-17T12:09:26.416Z,43.08
2022-08-17T12:12:13.374Z,42.18
2022-08-17T12:17:40.939Z,40.12
2022-08-17T12:20:15.276Z,39.32
2022-08-17T12:22:54.818Z,39.24
2022-08-17T12:25:33.253Z,38.85
2022-08-17T12:28:06.030Z,38.50
2022-08-17T12:30:36.581Z,38.34
2022-08-17T12:33:04.660Z,38.37
2022-08-17T12:35:35.170Z,38.64
2022-08-17T12:38:32.164Z,37.84
2022-08-17T12:40:59.618Z,38.48
2022-08-17T12:43:33.007Z,37.85
2022-08-17T12:46:12.956Z,38.04
2022-08-17T12:48:59.954Z,38.40
2022-08-17T12:51:29.994Z,38.38
2022-08-17T12:53:59.628Z,37.08
2022-08-17T12:56:27.452Z,37.51
2022-08-17T12:58:55.602Z,37.81
2022-08-17T13:01:26.105Z,40.13
2022-08-17T13:03:59.734Z,40.42
2022-08-17T13:06:31.595Z,39.47
2022-08-17T13:09:10.740Z,39.19
2022-08-17T13:11:48.107Z,38.84
2022-08-17T13:14:18.406Z,39.01
2022-08-17T13:16:53.677Z,40.59
2022-08-17T13:19:32.958Z,40.50
2022-08-17T13:22:12.484Z,40.72
2022-08-17T13:24:53.221Z,40.38
2022-08-17T13:27:23.627Z,39.71
2022-08-17T13:29:55.805Z,40.06
2022-08-17T13:32:35.112Z,38.45
2022-08-17T13:35:28.372Z,38.01
2022-08-17T13:38:02.488Z,39.23
2022-08-17T13:40:37.704Z,38.83
2022-08-17T13:43:06.335Z,37.42
2022-08-17T13:45:50.639Z,37.91
2022-08-17T13:48:28.393Z,38.89
2022-08-17T13:51:15.232Z,40.30
2022-08-17T13:54:02.246Z,42.06
2022-08-17T13:56:52.817Z,42.07
2022-08-17T13:59:52.748Z,42.06
2022-08-17T14:02:20.524Z,42.15
2022-08-17T14:04:49.390Z,41.72
2022-08-17T14:07:29.470Z,42.76
2022-08-17T14:10:01.371Z,43.79
2022-08-17T14:12:34.278Z,42.66
2022-08-17T14:15:03.170Z,43.47
2022-08-17T14:17:37.954Z,43.84
2022-08-17T14:20:09.369Z,43.08
2022-08-17T14:22:39.825Z,42.44
2022-08-17T14:25:10.616Z,40.56
2022-08-17T14:27:47.121Z,40.88
2022-08-17T14:30:23.958Z,40.20
2022-08-17T14:32:52.876Z,40.76
2022-08-17T14:35:23.250Z,41.40
2022-08-17T14:37:51.561Z,40.36
2022-08-17T14:40:25.160Z,39.11
2022-08-17T14:42:56.025Z,38.35
2022-08-17T14:45:32.892Z,38.28
2022-08-17T14:48:04.062Z,38.81
2022-08-17T14:50:35.457Z,38.52
2022-08-17T14:53:04.616Z,37.53
2022-08-17T14:55:32.843Z,38.41
2022-08-17T14:58:04.005Z,40.16
2022-08-17T15:00:32.116Z,41.78
2022-08-17T15:03:01.636Z,42.97
2022-08-17T15:05:35.130Z,43.75
2022-08-17T15:08:04.605Z,44.11
2022-08-17T15:10:33.015Z,45.09
2022-08-17T15:13:02.487Z,45.83
2022-08-17T15:15:31.302Z,46.68
2022-08-17T15:17:59.871Z,46.86
2022-08-17T15:20:30.037Z,47.38
2022-08-17T15:22:59.337Z,47.48
2022-08-17T15:25:29.527Z,47.71
2022-08-17T15:27:57.554Z,48.20
2022-08-17T15:30:27.416Z,48.36
2022-08-17T15:32:55.847Z,48.40
2022-08-17T15:35:27.784Z,48.48
2022-08-17T15:37:57.991Z,48.65
2022-08-17T15:40:26.256Z,48.41
2022-08-17T15:42:54.268Z,48.82
2022-08-17T15:45:24.838Z,48.84
2022-08-17T15:47:54.351Z,46.79
2022-08-17T15:50:22.480Z,45.07
2022-08-17T15:52:58.116Z,44.35
2022-08-17T15:55:27.993Z,43.04
2022-08-17T15:57:56.051Z,42.85
2022-08-17T16:00:24.908Z,42.75
2022-08-17T16:03:44.716Z,43.24
2022-08-17T16:05:42.681Z,45.00
2022-08-17T16:08:11.095Z,44.66
2022-08-17T16:10:39.186Z,44.73
2022-08-17T16:13:17.826Z,44.05
2022-08-17T16:15:56.622Z,45.05
2022-08-17T16:18:31.093Z,45.52
2022-08-17T16:21:21.481Z,46.07
2022-08-17T16:23:51.499Z,47.51
2022-08-17T16:26:19.882Z,48.05
2022-08-17T16:28:47.811Z,48.44
2022-08-17T16:31:16.755Z,48.71
2022-08-17T16:34:15.530Z,49.60
2022-08-17T16:36:35.919Z,49.47
2022-08-17T16:39:04.735Z,50.15
2022-08-17T16:41:45.310Z,50.73
2022-08-17T16:44:15.552Z,51.32
2022-08-17T16:46:45.408Z,51.37
2022-08-17T16:49:35.509Z,52.27
2022-08-17T16:52:05.819Z,52.05
2022-08-17T16:54:35.759Z,51.77
2022-08-17T16:57:05.238Z,51.92
2022-08-17T16:59:42.162Z,52.42
2022-08-17T17:02:13.891Z,52.68
2022-08-17T17:04:53.340Z,52.77
2022-08-17T17:07:39.391Z,53.49
2022-08-17T17:10:11.885Z,53.26
2022-08-17T17:13:02.899Z,53.78
2022-08-17T17:15:38.229Z,53.89
2022-08-17T17:18:07.855Z,53.67
2022-08-17T17:20:45.783Z,53.91
2022-08-17T17:23:28.869Z,54.09
2022-08-17T17:26:04.073Z,54.73
2022-08-17T17:28:44.320Z,54.52
2022-08-17T17:31:15.639Z,54.92
2022-08-17T17:33:48.380Z,54.74
2022-08-17T17:36:25.533Z,55.08
2022-08-17T17:38:57.495Z,55.07
2022-08-17T17:41:35.267Z,55.24
2022-08-17T17:44:07.981Z,55.67
2022-08-17T17:46:39.368Z,55.35
2022-08-17T17:49:10.256Z,55.51
2022-08-17T17:52:07.900Z,55.97
2022-08-17T17:54:54.089Z,55.82
2022-08-17T17:57:30.329Z,56.20
2022-08-17T18:00:08.263Z,56.26
2022-08-17T18:02:52.232Z,56.02
2022-08-17T18:05:41.710Z,56.76
2022-08-17T18:08:52.873Z,56.81
2022-08-17T18:11:35.160Z,57.34
2022-08-17T18:14:15.426Z,57.19
2022-08-17T18:16:44.116Z,57.34
2022-08-17T18:19:15.157Z,57.77
2022-08-17T18:21:47.028Z,58.02
2022-08-17T18:24:17.264Z,58.42
2022-08-17T18:26:55.092Z,59.29
2022-08-17T18:29:45.432Z,59.76
2022-08-17T18:32:37.844Z,60.05
2022-08-17T18:35:30.138Z,61.45
2022-08-17T18:38:20.337Z,62.54
2022-08-17T18:41:00.264Z,63.72
2022-08-17T18:43:43.835Z,64.43
2022-08-17T18:46:30.407Z,65.34
2022-08-17T18:49:01.142Z,65.90
2022-08-17T18:51:40.804Z,66.35
2022-08-17T18:54:22.895Z,67.10
2022-08-17T18:56:54.842Z,67.75
2022-08-17T18:59:28.977Z,68.45
2022-08-17T19:02:36.102Z,69.18
2022-08-17T19:05:13.591Z,69.23
2022-08-17T19:07:44.218Z,69.68
2022-08-17T19:10:19.410Z,70.73
2022-08-17T19:12:52.806Z,70.87
2022-08-17T19:15:28.400Z,71.24
2022-08-17T19:18:01.777Z,71.32
2022-08-17T19:20:33.947Z,71.96
2022-08-17T19:23:08.018Z,72.29
2022-08-17T19:25:39.820Z,72.11
2022-08-17T19:28:22.321Z,73.02
2022-08-17T19:30:55.869Z,72.78
2022-08-17T19:33:24.161Z,73.00
2022-08-17T19:36:03.137Z,73.50
2022-08-17T19:38:50.238Z,73.92
2022-08-17T19:41:26.257Z,73.65
2022-08-17T19:44:09.568Z,74.03
2022-08-17T19:46:48.617Z,74.17
2022-08-17T19:49:32.932Z,74.33
2022-08-17T19:52:16.796Z,74.82
2022-08-17T19:54:52.421Z,75.18
2022-08-17T19:57:29.251Z,75.92
2022-08-17T20:00:03.371Z,76.83
2022-08-17T20:02:37.810Z,77.16
2022-08-17T20:05:12.627Z,77.63
2022-08-17T20:07:46.553Z,77.96
2022-08-17T20:10:21.588Z,77.93
2022-08-17T20:12:53.381Z,78.18
2022-08-17T20:15:28.400Z,78.81
2022-08-17T20:18:01.010Z,78.92
2022-08-17T20:20:35.920Z,79.57
2022-08-17T20:23:11.666Z,79.73
2022-08-17T20:25:47.241Z,80.31
2022-08-17T20:28:24.092Z,80.29
2022-08-17T20:30:53.676Z,80.00
2022-08-17T20:33:27.586Z,80.48
2022-08-17T20:36:13.108Z,80.42
2022-08-17T20:38:44.612Z,80.26
2022-08-17T20:41:16.631Z,80.22
2022-08-17T20:43:51.211Z,80.46
2022-08-17T20:46:45.016Z,80.24
2022-08-17T20:49:24.291Z,80.65
2022-08-17T20:52:01.538Z,81.12
2022-08-17T20:54:49.660Z,81.90
2022-08-17T20:57:48.904Z,81.64
2022-08-17T21:00:51.332Z,81.66
2022-08-17T21:03:51.085Z,82.08
2022-08-17T21:06:22.827Z,81.90
2022-08-17T21:08:57.995Z,82.30
2022-08-17T21:12:03.289Z,82.81
2022-08-17T21:14:45.738Z,82.82
2022-08-17T21:17:31.252Z,82.96
2022-08-17T21:20:11.975Z,82.79
2022-08-17T21:22:53.301Z,82.39
2022-08-17T21:25:48.222Z,82.35
2022-08-17T21:28:30.112Z,82.19
2022-08-17T21:31:09.230Z,82.14
2022-08-17T21:33:39.132Z,82.32
2022-08-17T21:36:26.141Z,82.65
2022-08-17T21:39:01.543Z,82.21
2022-08-17T21:41:33.443Z,81.72
2022-08-17T21:44:07.528Z,81.88
2022-08-17T21:46:39.740Z,81.82
2022-08-17T21:49:13.514Z,81.80
2022-08-17T21:51:46.490Z,82.14
2022-08-17T21:54:34.805Z,81.70
2022-08-17T21:57:05.594Z,81.73
2022-08-17T21:59:36.675Z,81.60
2022-08-17T22:02:08.926Z,81.46
2022-08-17T22:04:38.871Z,81.69
2022-08-17T22:07:10.943Z,82.19
2022-08-17T22:09:43.577Z,81.75
2022-08-17T22:12:13.702Z,81.92
2022-08-17T22:14:52.466Z,82.13
2022-08-17T22:17:25.360Z,81.75
2022-08-17T22:19:56.419Z,82.27
2022-08-17T22:22:35.208Z,82.37
2022-08-17T22:25:08.056Z,82.35
2022-08-17T22:27:50.675Z,83.25
2022-08-17T22:30:31.733Z,83.03
2022-08-17T22:33:00.647Z,83.13
2022-08-17T22:35:40.933Z,83.66
2022-08-17T22:38:33.333Z,83.37
2022-08-17T22:41:18.075Z,83.56
2022-08-17T22:43:46.264Z,83.25
2022-08-17T22:46:15.004Z,82.92
2022-08-17T22:48:48.925Z,83.62
2022-08-17T22:51:21.645Z,83.32
2022-08-17T22:54:11.504Z,83.59
2022-08-17T22:57:05.466Z,83.39
2022-08-17T22:59:39.266Z,83.69
2022-08-17T23:02:15.143Z,84.23
2022-08-17T23:04:45.658Z,84.04
2022-08-17T23:07:13.576Z,84.24
2022-08-17T23:09:42.983Z,84.33
2022-08-17T23:12:15.003Z,84.34
2022-08-17T23:14:46.006Z,84.51
2022-08-17T23:17:14.458Z,84.52
2022-08-17T23:19:42.869Z,84.53
2022-08-17T23:22:12.440Z,84.82
2022-08-17T23:24:45.322Z,85.01
2022-08-17T23:27:14.153Z,85.26
2022-08-17T23:29:42.497Z,85.78
2022-08-17T23:32:13.951Z,86.30
2022-08-17T23:34:44.319Z,86.83
2022-08-17T23:37:13.198Z,86.66
2022-08-17T23:39:45.151Z,86.92
2022-08-17T23:42:16.516Z,86.49
2022-08-17T23:44:44.775Z,86.75
2022-08-17T23:47:13.106Z,87.26
2022-08-17T23:49:41.385Z,87.38
2022-08-17T23:52:12.683Z,87.72
2022-08-17T23:54:47.674Z,88.27
2022-08-17T23:57:17.780Z,88.66
2022-08-17T23:59:48.874Z,89.55
